createdAt,value
2023-04-28T00:00:11.177Z,1204.00
2023-04-28T00:01:11.252Z,1225.00
2023-04-28T00:02:11.307Z,1202.00
2023-04-28T00:03:11.650Z,1212.00
2023-04-28T00:04:11.692Z,1206.00
2023-04-28T00:05:11.486Z,1211.00
2023-04-28T00:06:11.518Z,1205.00
2023-04-28T00:07:11.563Z,1196.00
2023-04-28T00:08:11.603Z,1188.00
2023-04-28T00:09:11.663Z,1188.00
2023-04-28T00:10:11.731Z,1135.00
2023-04-28T00:11:11.773Z,1170.00
2023-04-28T00:12:11.849Z,1129.00
2023-04-28T00:13:11.888Z,1159.00
2023-04-28T00:14:11.965Z,1163.00
2023-04-28T00:15:12.002Z,1155.00
2023-04-28T00:16:12.086Z,1165.00
2023-04-28T00:17:12.148Z,1165.00
2023-04-28T00:18:12.249Z,1170.00
2023-04-28T00:19:12.271Z,1134.00
2023-04-28T00:20:12.260Z,1164.00
2023-04-28T00:21:12.303Z,1167.00
2023-04-28T00:22:12.358Z,1158.00
2023-04-28T00:23:12.427Z,1123.00
2023-04-28T00:24:12.482Z,1147.00
2023-04-28T00:25:12.520Z,1148.00
2023-04-28T00:26:12.572Z,1132.00
2023-04-28T00:27:12.608Z,1142.00
2023-04-28T00:28:16.123Z,1117.00
2023-04-28T00:29:13.657Z,1119.00
2023-04-28T00:30:12.637Z,1122.00
2023-04-28T00:31:12.668Z,1068.00
2023-04-28T00:32:12.650Z,1118.00
2023-04-28T00:33:12.612Z,1108.00
2023-04-28T00:34:12.671Z,1128.00
2023-04-28T00:35:12.597Z,1136.00
2023-04-28T00:36:12.593Z,1133.00
2023-04-28T00:37:12.608Z,1126.00
2023-04-28T00:38:12.597Z,1141.00
2023-04-28T00:39:12.585Z,1109.00
2023-04-28T00:40:12.630Z,1127.00
2023-04-28T00:41:12.667Z,1140.00
2023-04-28T00:42:12.711Z,1129.00
2023-04-28T00:43:12.777Z,1124.00
2023-04-28T00:44:12.811Z,1135.00
2023-04-28T00:45:12.836Z,1143.00
2023-04-28T00:46:12.913Z,1134.00
2023-04-28T00:47:12.943Z,1139.00
2023-04-28T00:48:12.981Z,1135.00
2023-04-28T00:49:13.045Z,1136.00
2023-04-28T00:50:13.125Z,1136.00
2023-04-28T00:51:13.140Z,1153.00
2023-04-28T00:52:13.225Z,1140.00
2023-04-28T00:53:13.270Z,1151.00
2023-04-28T00:54:13.497Z,1142.00
2023-04-28T00:55:13.432Z,1151.00
2023-04-28T00:56:13.480Z,1156.00
2023-04-28T00:57:13.514Z,1148.00
2023-04-28T00:58:13.585Z,1155.00
2023-04-28T00:59:13.658Z,1156.00
2023-04-28T01:00:13.699Z,1147.00
2023-04-28T01:01:13.804Z,1152.00
2023-04-28T01:02:13.821Z,1179.00
2023-04-28T01:03:13.944Z,1156.00
2023-04-28T01:04:14.151Z,1148.00
2023-04-28T01:05:13.932Z,1153.00
2023-04-28T01:06:13.976Z,1145.00
2023-04-28T01:07:14.004Z,1166.00
2023-04-28T01:08:14.071Z,1162.00
2023-04-28T01:09:14.110Z,1168.00
2023-04-28T01:10:14.189Z,1160.00
2023-04-28T01:11:14.345Z,1153.00
2023-04-28T01:12:14.251Z,1159.00
2023-04-28T01:13:14.371Z,1159.00
2023-04-28T01:14:14.525Z,1175.00
2023-04-28T01:15:14.456Z,1164.00
2023-04-28T01:16:14.494Z,1157.00
2023-04-28T01:17:14.537Z,1146.00
2023-04-28T01:18:14.580Z,1149.00
2023-04-28T01:19:14.668Z,1171.00
2023-04-28T01:20:14.711Z,1177.00
2023-04-28T01:21:14.770Z,1158.00
2023-04-28T01:22:14.794Z,1168.00
2023-04-28T01:23:14.881Z,1156.00
2023-04-28T01:24:15.107Z,1152.00
2023-04-28T01:25:15.016Z,1182.00
2023-04-28T01:26:15.075Z,1179.00
2023-04-28T01:27:15.922Z,1169.00
2023-04-28T01:28:15.162Z,1159.00
2023-04-28T01:29:15.235Z,1151.00
2023-04-28T01:30:15.302Z,1168.00
2023-04-28T01:31:15.352Z,1165.00
2023-04-28T01:32:15.388Z,1166.00
2023-04-28T01:33:15.428Z,1177.00
2023-04-28T01:34:15.667Z,1159.00
2023-04-28T01:35:15.646Z,1133.00
2023-04-28T01:36:15.608Z,1148.00
2023-04-28T01:37:15.670Z,1153.00
2023-04-28T01:38:15.710Z,1150.00
2023-04-28T01:39:15.728Z,1167.00
2023-04-28T01:40:15.779Z,1143.00
2023-04-28T01:41:15.839Z,1159.00
2023-04-28T01:42:15.978Z,1172.00
2023-04-28T01:43:15.968Z,1158.00
2023-04-28T01:44:16.375Z,1144.00
2023-04-28T01:45:16.103Z,1149.00
2023-04-28T01:46:16.116Z,1146.00
2023-04-28T01:47:16.189Z,1128.00
2023-04-28T01:48:16.222Z,1147.00
2023-04-28T01:49:16.266Z,1156.00
2023-04-28T01:50:16.342Z,1150.00
2023-04-28T01:51:16.375Z,1155.00
2023-04-28T01:52:16.431Z,1146.00
2023-04-28T01:53:16.486Z,1152.00
2023-04-28T01:54:16.741Z,1109.00
2023-04-28T01:55:16.587Z,1153.00
2023-04-28T01:56:16.611Z,1151.00
2023-04-28T01:57:17.661Z,1120.00
2023-04-28T01:58:16.766Z,1116.00
2023-04-28T01:59:16.767Z,1136.00
2023-04-28T02:00:16.841Z,1135.00
2023-04-28T02:01:16.890Z,1130.00
2023-04-28T02:02:16.974Z,1134.00
2023-04-28T02:03:17.071Z,1132.00
2023-04-28T02:04:17.401Z,1111.00
2023-04-28T02:05:17.081Z,1126.00
2023-04-28T02:06:17.107Z,1139.00
2023-04-28T02:07:17.166Z,1132.00
2023-04-28T02:08:17.186Z,1133.00
2023-04-28T02:09:17.214Z,1133.00
2023-04-28T02:10:17.275Z,1131.00
2023-04-28T02:11:17.302Z,1137.00
2023-04-28T02:12:17.373Z,1128.00
2023-04-28T02:13:17.387Z,1133.00
2023-04-28T02:14:17.760Z,1119.00
2023-04-28T02:15:18.387Z,1132.00
2023-04-28T02:16:17.574Z,1128.00
2023-04-28T02:17:17.619Z,1133.00
2023-04-28T02:18:17.633Z,1127.00
2023-04-28T02:19:17.699Z,1134.00
2023-04-28T02:20:17.715Z,1117.00
2023-04-28T02:21:17.776Z,1138.00
2023-04-28T02:22:17.859Z,1127.00
2023-04-28T02:23:17.881Z,1137.00
2023-04-28T02:24:18.238Z,1139.00
2023-04-28T02:25:17.976Z,1146.00
2023-04-28T02:26:18.064Z,1138.00
2023-04-28T02:27:18.109Z,1156.00
2023-04-28T02:28:18.120Z,1152.00
2023-04-28T02:29:18.190Z,1140.00
2023-04-28T02:30:18.261Z,1143.00
2023-04-28T02:31:18.351Z,1146.00
2023-04-28T02:32:18.345Z,1161.00
2023-04-28T02:33:18.366Z,1157.00
2023-04-28T02:34:18.634Z,1157.00
2023-04-28T02:35:18.467Z,1164.00
2023-04-28T02:36:18.535Z,1163.00
2023-04-28T02:37:18.568Z,1174.00
2023-04-28T02:38:18.613Z,1132.00
2023-04-28T02:39:18.683Z,1166.00
2023-04-28T02:40:18.715Z,1161.00
2023-04-28T02:41:18.775Z,1153.00
2023-04-28T02:42:18.809Z,1171.00
2023-04-28T02:43:18.858Z,1172.00
2023-04-28T02:44:18.943Z,1179.00
2023-04-28T02:45:18.960Z,1174.00
2023-04-28T02:46:19.072Z,1184.00
2023-04-28T02:47:19.092Z,1189.00
2023-04-28T02:48:19.153Z,1159.00
2023-04-28T02:49:19.174Z,1183.00
2023-04-28T02:50:19.251Z,1175.00
2023-04-28T02:51:19.316Z,1182.00
2023-04-28T02:52:19.339Z,1186.00
2023-04-28T02:53:19.415Z,1182.00
2023-04-28T02:54:19.432Z,1204.00
2023-04-28T02:55:19.550Z,1189.00
2023-04-28T02:56:19.564Z,1176.00
2023-04-28T02:57:19.637Z,1186.00
2023-04-28T02:58:19.656Z,1175.00
2023-04-28T02:59:19.698Z,1186.00
2023-04-28T03:00:19.768Z,1183.00
2023-04-28T03:01:19.876Z,1184.00
2023-04-28T03:02:19.931Z,1168.00
2023-04-28T03:03:20.062Z,1173.00
2023-04-28T03:04:20.405Z,1178.00
2023-04-28T03:05:20.058Z,1175.00
2023-04-28T03:06:20.190Z,1172.00
2023-04-28T03:07:20.182Z,1192.00
2023-04-28T03:08:20.202Z,1185.00
2023-04-28T03:09:20.267Z,1177.00
2023-04-28T03:10:20.328Z,1178.00
2023-04-28T03:11:20.384Z,1180.00
2023-04-28T03:12:20.425Z,1159.00
2023-04-28T03:13:20.477Z,1156.00
2023-04-28T03:14:20.521Z,1183.00
2023-04-28T03:15:20.608Z,1189.00
2023-04-28T03:16:20.658Z,1175.00
2023-04-28T03:17:20.772Z,1192.00
2023-04-28T03:18:20.742Z,1183.00
2023-04-28T03:19:20.792Z,1178.00
2023-04-28T03:20:20.861Z,1173.00
2023-04-28T03:21:20.930Z,1176.00
2023-04-28T03:22:20.972Z,1172.00
2023-04-28T03:23:21.022Z,1166.00
2023-04-28T03:24:21.075Z,1177.00
2023-04-28T03:25:21.121Z,1169.00
2023-04-28T03:26:21.197Z,1179.00
2023-04-28T03:27:21.268Z,1185.00
2023-04-28T03:28:21.314Z,1176.00
2023-04-28T03:29:21.330Z,1141.00
2023-04-28T03:30:21.405Z,1160.00
2023-04-28T03:31:21.472Z,1183.00
2023-04-28T03:32:21.534Z,1191.00
2023-04-28T03:33:21.574Z,1190.00
2023-04-28T03:34:21.623Z,1189.00
2023-04-28T03:35:21.668Z,1164.00
2023-04-28T03:36:21.758Z,1152.00
2023-04-28T03:37:21.798Z,1161.00
2023-04-28T03:38:21.843Z,1164.00
2023-04-28T03:39:21.894Z,1154.00
2023-04-28T03:40:21.971Z,1156.00
2023-04-28T03:41:22.022Z,1160.00
2023-04-28T03:42:22.055Z,1154.00
2023-04-28T03:43:22.137Z,1160.00
2023-04-28T03:44:22.171Z,1157.00
2023-04-28T03:45:22.262Z,1166.00
2023-04-28T03:46:22.399Z,1162.00
2023-04-28T03:47:22.349Z,1142.00
2023-04-28T03:48:22.471Z,1154.00
2023-04-28T03:49:22.460Z,1170.00
2023-04-28T03:50:24.173Z,1166.00
2023-04-28T03:51:22.525Z,1152.00
2023-04-28T03:52:22.511Z,1147.00
2023-04-28T03:53:22.496Z,1150.00
2023-04-28T03:54:22.514Z,1144.00
2023-04-28T03:55:22.513Z,1164.00
2023-04-28T03:56:22.497Z,1156.00
2023-04-28T03:57:22.466Z,1152.00
2023-04-28T03:58:22.493Z,1154.00
2023-04-28T03:59:22.470Z,1154.00
2023-04-28T04:00:22.475Z,1150.00
2023-04-28T04:01:22.465Z,1130.00
2023-04-28T04:02:22.561Z,1140.00
2023-04-28T04:03:22.647Z,1152.00
2023-04-28T04:04:22.856Z,1153.00
2023-04-28T04:05:22.566Z,1151.00
2023-04-28T04:06:22.448Z,1139.00
2023-04-28T04:07:22.437Z,1140.00
2023-04-28T04:08:22.430Z,1141.00
2023-04-28T04:09:22.437Z,1149.00
2023-04-28T04:10:22.399Z,1148.00
2023-04-28T04:11:22.390Z,1141.00
2023-04-28T04:12:22.401Z,1159.00
2023-04-28T04:13:22.405Z,1140.00
2023-04-28T04:14:22.369Z,1165.00
2023-04-28T04:15:22.368Z,1160.00
2023-04-28T04:16:22.474Z,1141.00
2023-04-28T04:17:22.402Z,1151.00
2023-04-28T04:18:22.341Z,1150.00
2023-04-28T04:19:22.333Z,1154.00
2023-04-28T04:20:22.370Z,1165.00
2023-04-28T04:21:22.337Z,1163.00
2023-04-28T04:22:22.316Z,1165.00
2023-04-28T04:23:22.303Z,1170.00
2023-04-28T04:24:22.310Z,1156.00
2023-04-28T04:25:23.440Z,1164.00
2023-04-28T04:26:22.282Z,1168.00
2023-04-28T04:27:22.321Z,1178.00
2023-04-28T04:28:22.331Z,1167.00
2023-04-28T04:29:22.390Z,1166.00
2023-04-28T04:30:22.444Z,1181.00
2023-04-28T04:31:22.732Z,1168.00
2023-04-28T04:32:22.566Z,1186.00
2023-04-28T04:33:22.636Z,1182.00
2023-04-28T04:34:22.666Z,1191.00
2023-04-28T04:35:22.744Z,1199.00
2023-04-28T04:36:22.776Z,1195.00
2023-04-28T04:37:22.831Z,1211.00
2023-04-28T04:38:22.901Z,1206.00
2023-04-28T04:39:22.949Z,1215.00
2023-04-28T04:40:23.015Z,1192.00
2023-04-28T04:41:23.072Z,1197.00
2023-04-28T04:42:25.479Z,1223.00
2023-04-28T04:43:23.121Z,1229.00
2023-04-28T04:44:23.110Z,1244.00
2023-04-28T04:45:23.099Z,1258.00
2023-04-28T04:46:23.156Z,1262.00
2023-04-28T04:47:23.116Z,1260.00
2023-04-28T04:48:23.083Z,1264.00
2023-04-28T04:49:23.067Z,1297.00
2023-04-28T04:50:23.075Z,1288.00
2023-04-28T04:51:23.062Z,1288.00
2023-04-28T04:52:23.053Z,1290.00
2023-04-28T04:53:23.038Z,1278.00
2023-04-28T04:54:23.045Z,1289.00
2023-04-28T04:55:23.041Z,1298.00
2023-04-28T04:56:23.047Z,1286.00
2023-04-28T04:57:23.035Z,1290.00
2023-04-28T04:58:23.031Z,1299.00
2023-04-28T04:59:23.012Z,1280.00
2023-04-28T05:00:23.010Z,1258.00
2023-04-28T05:01:23.078Z,1225.00
2023-04-28T05:02:23.134Z,1237.00
2023-04-28T05:03:23.055Z,1227.00
2023-04-28T05:04:23.276Z,1245.00
2023-04-28T05:05:23.292Z,1258.00
2023-04-28T05:06:22.967Z,1263.00
2023-04-28T05:07:22.982Z,1277.00
2023-04-28T05:08:22.961Z,1264.00
2023-04-28T05:09:22.979Z,1257.00
2023-04-28T05:10:22.936Z,1230.00
2023-04-28T05:11:22.972Z,1249.00
2023-04-28T05:12:22.936Z,1253.00
2023-04-28T05:13:22.947Z,1285.00
2023-04-28T05:14:22.922Z,1293.00
2023-04-28T05:15:22.913Z,1283.00
2023-04-28T05:16:22.994Z,1295.00
2023-04-28T05:17:22.919Z,1284.00
2023-04-28T05:18:22.882Z,1283.00
2023-04-28T05:19:22.911Z,1296.00
2023-04-28T05:20:22.882Z,1269.00
2023-04-28T05:21:22.914Z,1286.00
2023-04-28T05:22:22.969Z,1274.00
2023-04-28T05:23:23.046Z,1267.00
2023-04-28T05:24:23.131Z,1266.00
2023-04-28T05:25:23.171Z,1257.00
2023-04-28T05:26:23.185Z,1251.00
2023-04-28T05:27:23.307Z,1263.00
2023-04-28T05:28:23.332Z,1255.00
2023-04-28T05:29:23.361Z,1272.00
2023-04-28T05:30:23.414Z,1289.00
2023-04-28T05:31:23.600Z,1329.00
2023-04-28T05:32:23.725Z,1379.00
2023-04-28T05:33:23.594Z,1465.00
2023-04-28T05:34:23.637Z,1456.00
2023-04-28T05:35:23.724Z,1502.00
2023-04-28T05:36:23.798Z,1572.00
2023-04-28T05:37:23.801Z,1740.00
2023-04-28T05:38:23.860Z,1712.00
2023-04-28T05:39:23.901Z,1704.00
2023-04-28T05:40:23.981Z,1709.00
2023-04-28T05:41:24.097Z,1762.00
2023-04-28T05:42:24.508Z,1763.00
2023-04-28T05:43:24.125Z,1758.00
2023-04-28T05:44:24.194Z,1757.00
2023-04-28T05:45:24.193Z,1756.00
2023-04-28T05:47:24.522Z,1758.00
2023-04-28T05:48:24.328Z,1758.00
2023-04-28T05:49:24.215Z,1750.00
2023-04-28T05:50:24.217Z,1748.00
2023-04-28T05:51:24.215Z,1743.00
2023-04-28T05:52:24.198Z,1728.00
2023-04-28T05:53:24.187Z,1732.00
2023-04-28T05:54:24.978Z,1745.00
2023-04-28T05:55:24.178Z,1733.00
2023-04-28T05:56:24.207Z,1700.00
2023-04-28T05:57:24.219Z,1682.00
2023-04-28T05:58:24.209Z,1710.00
2023-04-28T05:59:24.202Z,1698.00
2023-04-28T06:00:24.301Z,1652.00
2023-04-28T06:01:24.189Z,1697.00
2023-04-28T06:02:26.124Z,1689.00
2023-04-28T06:03:24.355Z,1690.00
2023-04-28T06:04:24.561Z,1691.00
2023-04-28T06:05:24.346Z,1697.00
2023-04-28T06:06:24.136Z,1695.00
2023-04-28T06:07:24.142Z,1658.00
2023-04-28T06:08:24.127Z,1629.00
2023-04-28T06:09:24.094Z,1627.00
2023-04-28T06:10:24.153Z,1622.00
2023-04-28T06:11:24.055Z,1617.00
2023-04-28T06:12:24.105Z,1605.00
2023-04-28T06:13:24.052Z,1616.00
2023-04-28T06:14:24.074Z,1596.00
2023-04-28T06:15:24.033Z,1574.00
2023-04-28T06:16:24.034Z,1602.00
2023-04-28T06:17:24.171Z,1580.00
2023-04-28T06:18:24.015Z,1568.00
2023-04-28T06:19:24.022Z,1565.00
2023-04-28T06:20:23.982Z,1572.00
2023-04-28T06:21:24.011Z,1569.00
2023-04-28T06:22:24.121Z,1552.00
2023-04-28T06:23:23.994Z,1539.00
2023-04-28T06:24:23.975Z,1550.00
2023-04-28T06:25:23.971Z,1539.00
2023-04-28T06:26:23.988Z,1525.00
2023-04-28T06:27:23.965Z,1536.00
2023-04-28T06:28:23.977Z,1526.00
2023-04-28T06:29:23.964Z,1517.00
2023-04-28T06:30:23.920Z,1544.00
2023-04-28T06:31:23.960Z,1603.00
2023-04-28T06:32:23.976Z,1621.00
2023-04-28T06:33:23.964Z,1598.00
2023-04-28T06:34:24.041Z,1577.00
2023-04-28T06:35:24.058Z,1575.00
2023-04-28T06:36:24.145Z,1595.00
2023-04-28T06:37:24.149Z,1654.00
2023-04-28T06:38:24.215Z,1665.00
2023-04-28T06:39:24.227Z,1705.00
2023-04-28T06:40:24.307Z,1812.00
2023-04-28T06:41:24.325Z,1811.00
2023-04-28T06:42:24.782Z,1832.00
2023-04-28T06:43:24.373Z,1863.00
2023-04-28T06:44:24.439Z,1810.00
2023-04-28T06:45:24.460Z,1798.00
2023-04-28T06:46:24.583Z,1745.00
2023-04-28T06:47:25.062Z,1721.00
2023-04-28T06:48:24.605Z,1723.00
2023-04-28T06:49:24.689Z,1735.00
2023-04-28T06:50:24.799Z,1731.00
2023-04-28T06:51:24.759Z,1744.00
2023-04-28T06:52:33.094Z,1758.00
2023-04-28T06:53:25.840Z,1759.00
2023-04-28T06:54:24.805Z,1760.00
2023-04-28T06:55:24.790Z,1762.00
2023-04-28T06:56:24.810Z,1761.00
2023-04-28T06:57:24.767Z,1766.00
2023-04-28T06:58:24.848Z,1767.00
2023-04-28T06:59:24.753Z,1763.00
2023-04-28T07:00:24.805Z,1769.00
2023-04-28T07:01:24.848Z,1762.00
2023-04-28T07:02:24.831Z,1781.00
2023-04-28T07:03:25.582Z,1779.00
2023-04-28T07:04:24.911Z,1778.00
2023-04-28T07:05:24.829Z,1762.00
2023-04-28T07:06:24.895Z,1765.00
2023-04-28T07:07:24.969Z,1736.00
2023-04-28T07:08:24.994Z,1737.00
2023-04-28T07:09:25.003Z,1758.00
2023-04-28T07:10:25.079Z,1742.00
2023-04-28T07:11:25.076Z,1748.00
2023-04-28T07:12:25.117Z,1766.00
2023-04-28T07:13:25.538Z,1767.00
2023-04-28T07:14:25.202Z,1769.00
2023-04-28T07:15:25.278Z,1776.00
2023-04-28T07:16:25.367Z,1787.00
2023-04-28T07:17:25.400Z,1786.00
2023-04-28T07:18:25.369Z,1766.00
2023-04-28T07:19:25.400Z,1753.00
2023-04-28T07:20:25.481Z,1742.00
2023-04-28T07:21:27.039Z,1753.00
2023-04-28T07:22:25.511Z,1725.00
2023-04-28T07:23:25.533Z,1720.00
2023-04-28T07:24:25.590Z,1710.00
2023-04-28T07:25:25.597Z,1728.00
2023-04-28T07:26:25.643Z,1726.00
2023-04-28T07:27:25.697Z,1740.00
2023-04-28T07:28:25.760Z,1736.00
2023-04-28T07:29:25.769Z,1740.00
2023-04-28T07:30:27.820Z,1772.00
2023-04-28T07:31:26.048Z,1772.00
2023-04-28T07:32:26.626Z,1760.00
2023-04-28T07:33:26.636Z,1728.00
2023-04-28T07:34:26.141Z,1731.00
2023-04-28T07:35:26.157Z,1718.00
2023-04-28T07:36:26.207Z,1697.00
2023-04-28T07:37:26.260Z,1681.00
2023-04-28T07:38:26.329Z,1675.00
2023-04-28T07:39:26.326Z,1683.00
2023-04-28T07:40:26.399Z,1699.00
2023-04-28T07:41:26.420Z,1715.00
2023-04-28T07:42:26.535Z,1746.00
2023-04-28T07:43:26.511Z,1751.00
2023-04-28T07:44:26.536Z,1757.00
2023-04-28T07:45:26.588Z,1753.00
2023-04-28T07:46:26.666Z,1726.00
2023-04-28T07:47:26.648Z,1748.00
2023-04-28T07:48:26.703Z,1777.00
2023-04-28T07:49:26.820Z,1756.00
2023-04-28T07:50:26.781Z,1775.00
2023-04-28T07:51:26.853Z,1756.00
2023-04-28T07:52:26.840Z,1736.00
2023-04-28T07:53:27.055Z,1727.00
2023-04-28T07:54:26.980Z,1743.00
2023-04-28T07:55:26.925Z,1722.00
2023-04-28T07:56:26.997Z,1726.00
2023-04-28T07:57:27.030Z,1693.00
2023-04-28T07:58:27.092Z,1711.00
2023-04-28T07:59:27.103Z,1701.00
2023-04-28T08:00:27.132Z,1718.00
2023-04-28T08:01:27.143Z,1735.00
2023-04-28T08:02:27.230Z,1719.00
2023-04-28T08:03:27.431Z,1700.00
2023-04-28T08:04:27.605Z,1672.00
2023-04-28T08:05:27.320Z,1689.00
2023-04-28T08:06:27.275Z,1680.00
2023-04-28T08:07:27.315Z,1671.00
2023-04-28T08:08:27.326Z,1659.00
2023-04-28T08:09:27.355Z,1609.00
2023-04-28T08:10:27.362Z,1639.00
2023-04-28T08:11:27.379Z,1569.00
2023-04-28T08:12:27.451Z,1576.00
2023-04-28T08:13:27.455Z,1582.00
2023-04-28T08:14:27.500Z,1613.00
2023-04-28T08:15:27.480Z,1600.00
2023-04-28T08:16:27.494Z,1557.00
2023-04-28T08:17:27.557Z,1558.00
2023-04-28T08:18:27.571Z,1493.00
2023-04-28T08:19:27.545Z,1510.00
2023-04-28T08:20:27.546Z,1523.00
2023-04-28T08:21:27.576Z,1591.00
2023-04-28T08:22:27.628Z,1571.00
2023-04-28T08:23:28.051Z,1531.00
2023-04-28T08:24:27.640Z,1475.00
2023-04-28T08:25:27.679Z,1508.00
2023-04-28T08:26:27.688Z,1622.00
2023-04-28T08:27:27.714Z,1676.00
2023-04-28T08:28:27.695Z,1720.00
2023-04-28T08:29:27.713Z,1645.00
2023-04-28T08:30:27.730Z,1611.00
2023-04-28T08:31:27.819Z,1621.00
2023-04-28T08:32:27.759Z,1641.00
2023-04-28T08:33:27.736Z,1647.00
2023-04-28T08:34:27.786Z,1664.00
2023-04-28T08:35:27.850Z,1694.00
2023-04-28T08:36:27.831Z,1648.00
2023-04-28T08:37:27.858Z,1640.00
2023-04-28T08:38:27.875Z,1646.00
2023-04-28T08:39:27.891Z,1658.00
2023-04-28T08:40:27.899Z,1605.00
2023-04-28T08:41:27.936Z,1663.00
2023-04-28T08:42:28.104Z,1630.00
2023-04-28T08:43:28.081Z,1618.00
2023-04-28T08:44:28.047Z,1574.00
2023-04-28T08:45:28.490Z,1578.00
2023-04-28T08:46:28.145Z,1573.00
2023-04-28T08:47:28.588Z,1559.00
2023-04-28T08:48:28.178Z,1568.00
2023-04-28T08:49:28.164Z,1538.00
2023-04-28T08:50:28.299Z,1574.00
2023-04-28T08:51:28.201Z,1677.00
2023-04-28T08:52:28.221Z,1608.00
2023-04-28T08:53:28.370Z,1568.00
2023-04-28T08:54:28.299Z,1615.00
2023-04-28T08:55:28.328Z,1615.00
2023-04-28T08:56:28.379Z,1658.00
2023-04-28T08:57:28.396Z,1618.00
2023-04-28T08:58:28.443Z,1598.00
2023-04-28T08:59:28.426Z,1569.00
2023-04-28T09:00:28.420Z,1542.00
2023-04-28T09:01:28.509Z,1559.00
2023-04-28T09:02:28.659Z,1589.00
2023-04-28T09:03:28.790Z,1591.00
2023-04-28T09:04:28.722Z,1566.00
2023-04-28T09:05:28.711Z,1558.00
2023-04-28T09:06:28.656Z,1568.00
2023-04-28T09:07:28.603Z,1614.00
2023-04-28T09:08:28.659Z,1648.00
2023-04-28T09:09:30.746Z,1633.00
2023-04-28T09:10:28.629Z,1674.00
2023-04-28T09:11:28.644Z,1661.00
2023-04-28T09:12:28.618Z,1676.00
2023-04-28T09:13:28.624Z,1658.00
2023-04-28T09:14:28.597Z,1697.00
2023-04-28T09:15:29.013Z,1673.00
2023-04-28T09:16:28.642Z,1671.00
2023-04-28T09:17:29.130Z,1684.00
2023-04-28T09:18:28.568Z,1679.00
2023-04-28T09:19:28.617Z,1690.00
2023-04-28T09:20:28.578Z,1679.00
2023-04-28T09:21:28.568Z,1689.00
2023-04-28T09:22:28.674Z,1721.00
2023-04-28T09:23:28.624Z,1732.00
2023-04-28T09:24:28.532Z,1722.00
2023-04-28T09:25:29.058Z,1722.00
2023-04-28T09:26:28.638Z,1744.00
2023-04-28T09:27:28.689Z,1740.00
2023-04-28T09:28:28.512Z,1737.00
2023-04-28T09:29:28.498Z,1755.00
2023-04-28T09:30:28.538Z,1763.00
2023-04-28T09:31:28.682Z,1733.00
2023-04-28T09:32:28.897Z,1788.00
2023-04-28T09:33:28.623Z,1841.00
2023-04-28T09:34:28.479Z,1922.00
2023-04-28T09:35:28.477Z,1956.00
2023-04-28T09:36:28.461Z,1975.00
2023-04-28T09:37:28.486Z,1971.00
2023-04-28T09:38:28.450Z,1971.00
2023-04-28T09:39:28.479Z,1953.00
2023-04-28T09:40:28.424Z,1951.00
2023-04-28T09:41:28.425Z,1959.00
2023-04-28T09:42:28.439Z,1944.00
2023-04-28T09:43:28.433Z,1961.00
2023-04-28T09:44:28.444Z,1961.00
2023-04-28T09:45:30.386Z,1949.00
2023-04-28T09:46:28.558Z,1961.00
2023-04-28T09:47:28.445Z,1921.00
2023-04-28T09:48:28.378Z,1885.00
2023-04-28T09:49:28.358Z,1870.00
2023-04-28T09:50:28.353Z,1805.00
2023-04-28T09:51:28.442Z,1818.00
2023-04-28T09:52:28.382Z,1901.00
2023-04-28T09:53:28.361Z,1919.00
2023-04-28T09:54:28.457Z,1761.00
2023-04-28T09:55:28.438Z,1672.00
2023-04-28T09:56:28.335Z,1596.00
2023-04-28T09:57:28.367Z,1566.00
2023-04-28T09:58:28.373Z,1588.00
2023-04-28T09:59:29.068Z,1508.00
2023-04-28T10:00:28.416Z,1445.00
2023-04-28T10:01:28.512Z,1374.00
2023-04-28T10:03:30.106Z,1404.00
2023-04-28T10:04:28.636Z,1432.00
2023-04-28T10:05:28.696Z,1498.00
2023-04-28T10:06:28.461Z,1572.00
2023-04-28T10:07:28.449Z,1679.00
2023-04-28T10:08:28.513Z,1471.00
2023-04-28T10:09:28.437Z,1160.00
2023-04-28T10:10:28.440Z,1097.00
2023-04-28T10:11:28.418Z,1280.00
2023-04-28T10:12:28.423Z,1237.00
2023-04-28T10:13:28.444Z,1057.00
2023-04-28T10:14:28.416Z,977.00
2023-04-28T10:15:29.104Z,991.00
2023-04-28T10:16:28.504Z,982.00
2023-04-28T10:17:28.469Z,1034.00
2023-04-28T10:18:28.594Z,1041.00
2023-04-28T10:19:28.473Z,1090.00
2023-04-28T10:20:28.544Z,1147.00
2023-04-28T10:21:28.556Z,1328.00
2023-04-28T10:22:28.609Z,1957.00
2023-04-28T10:23:28.658Z,2188.00
2023-04-28T10:24:28.702Z,1751.00
2023-04-28T10:25:28.739Z,1412.00
2023-04-28T10:26:28.829Z,1364.00
2023-04-28T10:27:28.806Z,1283.00
2023-04-28T10:28:29.081Z,1257.00
2023-04-28T10:29:28.893Z,1287.00
2023-04-28T10:30:29.837Z,1232.00
2023-04-28T10:31:29.029Z,1104.00
2023-04-28T10:32:29.137Z,1184.00
2023-04-28T10:33:29.521Z,1157.00
2023-04-28T10:34:30.184Z,1078.00
2023-04-28T10:35:29.070Z,945.00
2023-04-28T10:36:35.964Z,904.00
2023-04-28T10:37:30.066Z,906.00
2023-04-28T10:38:29.117Z,919.00
2023-04-28T10:39:29.052Z,982.00
2023-04-28T10:40:29.045Z,1037.00
2023-04-28T10:41:29.364Z,1132.00
2023-04-28T10:42:29.178Z,1169.00
2023-04-28T10:43:29.269Z,1249.00
2023-04-28T10:44:29.120Z,1274.00
2023-04-28T10:45:29.032Z,1289.00
2023-04-28T10:46:29.136Z,1296.00
2023-04-28T10:47:29.038Z,1283.00
2023-04-28T10:48:29.014Z,1302.00
2023-04-28T10:49:29.014Z,1292.00
2023-04-28T10:50:38.452Z,1383.00
2023-04-28T10:51:29.985Z,1385.00
2023-04-28T10:52:28.986Z,1392.00
2023-04-28T10:53:29.188Z,1366.00
2023-04-28T10:54:29.106Z,1366.00
2023-04-28T10:55:29.042Z,1365.00
2023-04-28T10:56:28.967Z,1408.00
2023-04-28T10:57:28.942Z,1384.00
2023-04-28T10:58:28.938Z,1434.00
2023-04-28T10:59:28.955Z,1410.00
2023-04-28T11:00:28.927Z,1422.00
2023-04-28T11:01:28.964Z,1421.00
2023-04-28T11:02:29.001Z,1409.00
2023-04-28T11:03:29.311Z,1389.00
2023-04-28T11:04:29.016Z,1406.00
2023-04-28T11:05:28.891Z,1441.00
2023-04-28T11:06:29.129Z,1412.00
2023-04-28T11:07:28.888Z,1461.00
2023-04-28T11:08:28.874Z,1495.00
2023-04-28T11:09:28.880Z,1509.00
2023-04-28T11:10:28.892Z,1578.00
2023-04-28T11:11:28.861Z,1578.00
2023-04-28T11:12:28.849Z,1539.00
2023-04-28T11:13:29.050Z,1521.00
2023-04-28T11:14:29.158Z,1481.00
2023-04-28T11:15:28.906Z,1512.00
2023-04-28T11:16:28.863Z,1530.00
2023-04-28T11:17:28.830Z,1531.00
2023-04-28T11:18:28.821Z,1740.00
2023-04-28T11:19:28.805Z,1896.00
2023-04-28T11:20:28.793Z,1815.00
2023-04-28T11:21:28.793Z,1759.00
2023-04-28T11:22:28.778Z,1800.00
2023-04-28T11:23:28.902Z,1809.00
2023-04-28T11:24:29.142Z,1819.00
2023-04-28T11:25:28.786Z,1822.00
2023-04-28T11:26:28.753Z,1810.00
2023-04-28T11:27:28.770Z,1783.00
2023-04-28T11:28:28.772Z,1768.00
2023-04-28T11:29:28.819Z,1737.00
2023-04-28T11:30:28.793Z,1688.00
2023-04-28T11:31:28.928Z,1671.00
2023-04-28T11:32:28.874Z,1634.00
2023-04-28T11:33:28.829Z,1637.00
2023-04-28T11:34:28.811Z,1555.00
2023-04-28T11:35:28.837Z,1529.00
2023-04-28T11:36:28.888Z,1508.00
2023-04-28T11:37:28.871Z,1493.00
2023-04-28T11:38:28.872Z,1446.00
2023-04-28T11:39:28.881Z,1364.00
2023-04-28T11:40:28.918Z,1243.00
2023-04-28T11:41:28.920Z,1350.00
2023-04-28T11:42:28.947Z,1409.00
2023-04-28T11:43:31.154Z,1366.00
2023-04-28T11:44:29.995Z,1341.00
2023-04-28T11:45:28.959Z,1291.00
2023-04-28T11:46:29.076Z,1251.00
2023-04-28T11:47:28.946Z,1059.00
2023-04-28T11:48:28.946Z,873.00
2023-04-28T11:49:28.931Z,729.00
2023-04-28T11:50:28.919Z,815.00
2023-04-28T11:51:28.899Z,1070.00
2023-04-28T11:52:28.931Z,1091.00
2023-04-28T11:53:28.900Z,1090.00
2023-04-28T11:54:29.167Z,809.00
2023-04-28T11:55:28.891Z,742.00
2023-04-28T11:56:28.867Z,690.00
2023-04-28T11:57:28.863Z,648.00
2023-04-28T11:58:29.143Z,657.00
2023-04-28T11:59:28.853Z,632.00
2023-04-28T12:00:28.877Z,602.00
2023-04-28T12:01:28.839Z,605.00
2023-04-28T12:02:28.992Z,641.00
2023-04-28T12:03:28.981Z,652.00
2023-04-28T12:04:28.950Z,657.00
2023-04-28T12:05:28.901Z,717.00
2023-04-28T12:06:29.633Z,675.00
2023-04-28T12:07:28.922Z,699.00
2023-04-28T12:08:28.971Z,764.00